This is the latest recevied weather packets stored in our database for station/object VK2XSE. If no packets are shown the sender has not sent any weather packets the latest 10 day(s).
| Time | Temp. | Humidity | Pressure | Rain* | Wind** | Luminosity | Snow |
|---|---|---|---|---|---|---|---|
| 1777508718 | 23.89° C | 48% | 1028.6 hPa | 0 mm | - | 462 W/m² | - |
| 1777508118 | 23.33° C | 49% | 1028.8 hPa | 0 mm | - | 474 W/m² | - |
| 1777507518 | 22.78° C | 50% | 1028.8 hPa | 0 mm | - | 452 W/m² | - |
| 1777506918 | 22.22° C | 52% | 1029 hPa | 0 mm | - | 433 W/m² | - |
| 1777506318 | 21.67° C | 54% | 1028.9 hPa | 0 mm | - | 410 W/m² | - |
| 1777505718 | 21.11° C | 54% | 1029.1 hPa | 0 mm | - | 386 W/m² | - |
| 1777505118 | 20° C | 58% | 1029.1 hPa | 0 mm | - | 365 W/m² | - |
| 1777504518 | 18.89° C | 56% | 1029.1 hPa | 0 mm | - | 340 W/m² | - |
| 1777503918 | 18.33° C | 57% | 1029.1 hPa | 0 mm | - | 316 W/m² | - |
| 1777503317 | 17.22° C | 60% | 1029 hPa | 0 mm | - | 289 W/m² | - |
| 1777502718 | 16.67° C | 61% | 1029 hPa | 0 mm | - | 263 W/m² | - |
| 1777502118 | 16.11° C | 62% | 1028.9 hPa | 0 mm | - | 203 W/m² | - |
| 1777501517 | 15.56° C | 63% | 1029 hPa | 0 mm | - | 35 W/m² | - |
| 1777500918 | 15° C | 63% | 1028.9 hPa | 0 mm | - | 30 W/m² | - |
| 1777500317 | 13.89° C | 65% | 1028.7 hPa | 0 mm | - | 28 W/m² | - |
| 1777499717 | 13.33° C | 66% | 1028.7 hPa | 0 mm | - | 26 W/m² | - |
| 1777499117 | 12.22° C | 68% | 1028.5 hPa | 0 mm | - | 27 W/m² | - |
| 1777498517 | 11.67° C | 69% | 1028.5 hPa | 0 mm | - | 23 W/m² | - |
| 1777497917 | 11.11° C | 69% | 1028.4 hPa | 0 mm | - | 22 W/m² | - |
| 1777497318 | 10.56° C | 69% | 1028.3 hPa | 0 mm | - | 16 W/m² | - |
| 1777496718 | 10.56° C | 68% | 1028.2 hPa | 0 mm | - | 12 W/m² | - |
| 1777496117 | 10° C | 68% | 1028 hPa | 0 mm | - | 5 W/m² | - |
| 1777495517 | 10° C | 68% | 1027.8 hPa | 0 mm | - | 0 W/m² | - |
| 1777494917 | 10° C | 68% | 1027.7 hPa | 0 mm | - | 0 W/m² | - |
| 1777493717 | 10.56° C | 65% | 1027.6 hPa | 0 mm | - | 0 W/m² | - |
* Rain latest hour (hover to see other rain measurements)
** Current wind speed in m/s (hover to see current wind gust speed)